createdAt,value
2022-12-25T00:01:56.262Z,0.87
2022-12-25T00:04:58.667Z,0.95
2022-12-25T00:08:00.986Z,1.05
2022-12-25T00:11:09.440Z,1.00
2022-12-25T00:14:11.797Z,1.03
2022-12-25T00:17:14.555Z,1.00
2022-12-25T00:20:17.225Z,0.97
2022-12-25T00:23:19.572Z,1.11
2022-12-25T00:26:22.120Z,1.05
2022-12-25T00:29:24.363Z,0.79
2022-12-25T00:32:27.868Z,0.75
2022-12-25T00:35:30.291Z,0.70
2022-12-25T00:38:33.696Z,0.71
2022-12-25T00:41:54.807Z,0.73
2022-12-25T00:44:57.107Z,0.84
2022-12-25T00:47:59.624Z,1.09
2022-12-25T00:51:04.307Z,1.03
2022-12-25T00:54:06.659Z,0.96
2022-12-25T00:57:09.064Z,0.85
2022-12-25T01:00:12.233Z,0.96
2022-12-25T01:03:14.813Z,1.01
2022-12-25T01:06:17.377Z,0.90
2022-12-25T01:09:38.495Z,0.97
2022-12-25T01:12:42.377Z,1.10
2022-12-25T01:15:44.714Z,1.14
2022-12-25T01:18:47.048Z,1.16
2022-12-25T01:21:49.485Z,1.01
2022-12-25T01:24:52.184Z,1.02
2022-12-25T01:27:54.623Z,0.86
2022-12-25T01:30:57.099Z,0.91
2022-12-25T01:33:59.367Z,0.73
2022-12-25T01:37:01.790Z,0.83
2022-12-25T01:40:05.198Z,0.93
2022-12-25T01:43:18.864Z,0.84
2022-12-25T01:46:21.286Z,0.86
2022-12-25T01:49:25.329Z,0.71
2022-12-25T01:52:27.501Z,0.70
2022-12-25T01:55:31.023Z,0.54
2022-12-25T01:58:33.473Z,0.71
2022-12-25T02:01:36.395Z,0.82
2022-12-25T02:04:46.713Z,0.84
2022-12-25T02:07:49.416Z,0.97
2022-12-25T02:10:51.768Z,0.73
2022-12-25T02:13:54.220Z,0.85
2022-12-25T02:17:35.190Z,0.78
2022-12-25T02:20:44.307Z,0.67
2022-12-25T02:24:30.017Z,0.65
2022-12-25T02:27:38.316Z,0.74
2022-12-25T02:31:02.228Z,0.73
2022-12-25T02:34:27.106Z,1.05
2022-12-25T02:37:53.343Z,0.98
2022-12-25T02:40:58.652Z,1.06
2022-12-25T02:44:21.560Z,0.99
2022-12-25T02:47:54.283Z,0.95
2022-12-25T02:51:16.336Z,0.70
2022-12-25T02:54:41.842Z,0.99
2022-12-25T02:58:06.783Z,0.85
2022-12-25T03:01:54.682Z,1.08
2022-12-25T03:05:17.402Z,1.16
2022-12-25T03:08:27.907Z,1.12
2022-12-25T03:11:33.396Z,0.99
2022-12-25T03:14:54.320Z,1.11
2022-12-25T03:17:59.257Z,1.05
2022-12-25T03:21:21.885Z,1.07
2022-12-25T03:24:42.842Z,0.82
2022-12-25T03:27:47.523Z,0.79
2022-12-25T03:31:14.134Z,0.78
2022-12-25T03:34:43.363Z,0.79
2022-12-25T03:38:13.187Z,0.68
2022-12-25T03:41:49.174Z,0.72
2022-12-25T03:45:25.267Z,0.67
2022-12-25T03:48:47.281Z,0.56
2022-12-25T03:52:08.353Z,0.68
2022-12-25T03:55:30.691Z,0.69
2022-12-25T03:58:52.751Z,0.82
2022-12-25T04:02:14.057Z,0.87
2022-12-25T04:05:35.307Z,0.56
2022-12-25T04:08:56.659Z,0.80
2022-12-25T04:12:17.705Z,0.98
2022-12-25T04:15:38.864Z,1.16
2022-12-25T04:18:59.831Z,1.21
2022-12-25T04:22:21.569Z,1.01
2022-12-25T04:25:42.742Z,0.97
2022-12-25T04:29:03.900Z,1.03
2022-12-25T04:32:25.653Z,1.15
2022-12-25T04:35:46.699Z,1.33
2022-12-25T04:38:49.105Z,1.29
2022-12-25T04:41:51.532Z,1.21
2022-12-25T04:44:53.859Z,1.21
2022-12-25T04:47:56.284Z,1.13
2022-12-25T04:50:58.737Z,1.13
2022-12-25T04:54:01.141Z,1.38
2022-12-25T04:57:03.462Z,1.67
2022-12-25T05:00:06.811Z,1.62
2022-12-25T05:03:09.225Z,1.59
2022-12-25T05:06:11.743Z,1.55
2022-12-25T05:09:14.133Z,1.40
2022-12-25T05:12:16.514Z,1.44
2022-12-25T05:15:19.074Z,1.31
2022-12-25T05:18:21.636Z,1.15
2022-12-25T05:21:24.050Z,1.08
2022-12-25T05:24:27.953Z,1.03
2022-12-25T05:27:30.269Z,1.13
2022-12-25T05:30:32.954Z,1.07
2022-12-25T05:33:35.580Z,1.14
2022-12-25T05:36:39.494Z,0.82
2022-12-25T05:39:42.278Z,1.10
2022-12-25T05:42:44.697Z,1.15
2022-12-25T05:45:47.094Z,1.02
2022-12-25T05:48:49.549Z,0.91
2022-12-25T05:51:51.934Z,0.89
2022-12-25T05:54:54.226Z,0.92
2022-12-25T05:57:56.499Z,1.12
2022-12-25T06:00:59.151Z,1.14
2022-12-25T06:04:03.613Z,1.22
2022-12-25T06:07:09.337Z,1.19
2022-12-25T06:10:11.693Z,1.05
2022-12-25T06:13:14.337Z,1.00
2022-12-25T06:16:16.911Z,1.11
2022-12-25T06:19:22.654Z,1.19
2022-12-25T06:22:29.766Z,1.23
2022-12-25T06:25:32.589Z,1.17
2022-12-25T06:28:35.489Z,1.10
2022-12-25T06:31:37.953Z,1.08
2022-12-25T06:34:40.348Z,1.02
2022-12-25T06:37:42.873Z,1.07
2022-12-25T06:40:45.318Z,1.15
2022-12-25T06:43:51.823Z,1.32
2022-12-25T06:46:54.747Z,1.33
2022-12-25T06:49:57.076Z,1.44
2022-12-25T06:52:59.360Z,1.68
2022-12-25T06:56:16.027Z,1.76
2022-12-25T06:59:18.351Z,1.74
2022-12-25T07:02:22.882Z,1.58
2022-12-25T07:05:25.296Z,1.64
2022-12-25T07:08:27.552Z,1.47
2022-12-25T07:11:29.960Z,1.09
2022-12-25T07:14:32.264Z,1.02
2022-12-25T07:17:36.233Z,1.10
2022-12-25T07:20:43.078Z,1.15
2022-12-25T07:23:52.768Z,1.12
2022-12-25T07:27:00.915Z,1.17
2022-12-25T07:30:10.469Z,1.22
2022-12-25T07:33:14.187Z,1.17
2022-12-25T07:36:16.523Z,0.96
2022-12-25T07:39:18.978Z,1.01
2022-12-25T07:42:25.171Z,1.23
2022-12-25T07:45:29.980Z,1.28
2022-12-25T07:48:32.826Z,1.15
2022-12-25T07:51:35.358Z,1.25
2022-12-25T07:54:37.743Z,1.38
2022-12-25T07:57:40.448Z,1.31
2022-12-25T08:00:42.829Z,1.41
2022-12-25T08:03:49.840Z,1.46
2022-12-25T08:06:52.206Z,1.50
2022-12-25T08:09:54.568Z,1.59
2022-12-25T08:12:57.263Z,1.53
2022-12-25T08:16:01.114Z,1.65
2022-12-25T08:19:03.728Z,1.70
2022-12-25T08:22:06.343Z,1.58
2022-12-25T08:25:09.287Z,1.58
2022-12-25T08:28:11.813Z,1.48
2022-12-25T08:31:18.256Z,1.65
2022-12-25T08:34:20.675Z,1.59
2022-12-25T08:37:23.087Z,1.69
2022-12-25T08:40:25.892Z,1.80
2022-12-25T08:43:28.251Z,1.84
2022-12-25T08:46:30.746Z,1.83
2022-12-25T08:49:33.230Z,1.92
2022-12-25T08:52:36.116Z,2.14
2022-12-25T08:55:38.472Z,2.29
2022-12-25T08:58:41.129Z,2.12
2022-12-25T09:01:43.877Z,1.96
2022-12-25T09:04:47.268Z,1.96
2022-12-25T09:07:49.831Z,2.00
2022-12-25T09:10:52.196Z,2.03
2022-12-25T09:13:54.645Z,2.05
2022-12-25T09:16:57.038Z,2.14
2022-12-25T09:19:59.632Z,2.22
2022-12-25T09:23:01.972Z,2.14
2022-12-25T09:26:08.735Z,1.91
2022-12-25T09:29:14.577Z,2.03
2022-12-25T09:32:19.384Z,2.22
2022-12-25T09:35:23.892Z,2.27
2022-12-25T09:38:27.476Z,2.23
2022-12-25T09:42:02.595Z,2.24
2022-12-25T09:45:13.816Z,2.18
2022-12-25T09:48:16.946Z,2.01
2022-12-25T09:51:20.091Z,2.03
2022-12-25T09:54:29.108Z,2.07
2022-12-25T09:57:31.403Z,2.21
2022-12-25T10:00:44.393Z,2.24
2022-12-25T10:03:55.632Z,2.32
2022-12-25T10:07:14.618Z,2.30
2022-12-25T10:10:28.899Z,2.35
2022-12-25T10:13:37.012Z,2.43
2022-12-25T10:17:07.506Z,2.48
2022-12-25T10:20:15.671Z,2.47
2022-12-25T10:23:42.573Z,2.63
2022-12-25T10:26:45.736Z,2.57
2022-12-25T10:29:50.837Z,2.77
2022-12-25T10:32:53.892Z,2.75
2022-12-25T10:35:56.431Z,2.71
2022-12-25T10:38:59.067Z,2.98
2022-12-25T10:42:37.987Z,3.02
2022-12-25T10:45:47.576Z,2.93
2022-12-25T10:48:52.797Z,2.96
2022-12-25T10:51:55.156Z,2.89
2022-12-25T10:54:57.716Z,2.89
2022-12-25T10:58:02.757Z,2.69
2022-12-25T11:01:08.741Z,2.73
2022-12-25T11:04:20.263Z,2.58
2022-12-25T11:07:26.869Z,2.69
2022-12-25T11:10:32.080Z,2.75
2022-12-25T11:13:40.849Z,2.73
2022-12-25T11:16:43.335Z,2.56
2022-12-25T11:19:53.111Z,2.79
2022-12-25T11:22:55.753Z,2.59
2022-12-25T11:25:58.897Z,2.82
2022-12-25T11:29:01.546Z,2.85
2022-12-25T11:32:06.273Z,3.01
2022-12-25T11:35:14.458Z,3.08
2022-12-25T11:38:16.898Z,2.93
2022-12-25T11:41:20.903Z,2.93
2022-12-25T11:44:40.760Z,3.13
2022-12-25T11:47:49.763Z,3.16
2022-12-25T11:50:58.832Z,3.07
2022-12-25T11:54:19.739Z,3.00
2022-12-25T11:57:24.597Z,2.77
2022-12-25T12:00:28.287Z,2.92
2022-12-25T12:03:38.866Z,2.74
2022-12-25T12:06:54.547Z,2.73
2022-12-25T12:10:15.716Z,2.70
2022-12-25T12:14:02.765Z,2.72
2022-12-25T12:17:05.497Z,2.92
2022-12-25T12:20:31.429Z,3.05
2022-12-25T12:24:17.590Z,2.92
2022-12-25T12:27:20.062Z,2.99
2022-12-25T12:30:28.803Z,2.83
2022-12-25T12:33:35.789Z,2.81
2022-12-25T12:36:38.095Z,2.91
2022-12-25T12:39:41.552Z,2.92
2022-12-25T12:42:50.634Z,2.89
2022-12-25T12:46:06.685Z,2.82
2022-12-25T12:49:11.800Z,2.85
2022-12-25T12:52:31.060Z,2.89
2022-12-25T12:55:35.702Z,2.89
2022-12-25T12:58:45.324Z,2.96
2022-12-25T13:02:03.059Z,2.86
2022-12-25T13:05:45.425Z,2.69
2022-12-25T13:09:12.405Z,2.93
2022-12-25T13:12:15.383Z,3.23
2022-12-25T13:15:27.183Z,3.17
2022-12-25T13:18:34.162Z,3.09
2022-12-25T13:21:37.219Z,3.04
2022-12-25T13:24:40.107Z,2.77
2022-12-25T13:27:42.816Z,2.78
2022-12-25T13:30:47.262Z,2.72
2022-12-25T13:33:51.246Z,2.74
2022-12-25T13:36:53.720Z,2.44
2022-12-25T13:40:07.211Z,2.42
2022-12-25T13:43:11.398Z,2.39
2022-12-25T13:46:15.950Z,2.45
2022-12-25T13:49:31.575Z,2.34
2022-12-25T13:52:38.815Z,2.42
2022-12-25T13:55:42.720Z,2.55
2022-12-25T13:58:47.431Z,2.62
2022-12-25T14:01:51.505Z,2.48
2022-12-25T14:04:53.794Z,2.54
2022-12-25T14:07:58.361Z,2.58
2022-12-25T14:11:06.362Z,2.53
2022-12-25T14:14:35.678Z,2.58
2022-12-25T14:17:38.198Z,2.48
2022-12-25T14:20:42.835Z,2.36
2022-12-25T14:23:47.656Z,2.31
2022-12-25T14:27:03.904Z,2.54
2022-12-25T14:30:13.360Z,2.68
2022-12-25T14:33:19.893Z,2.57
2022-12-25T14:36:22.648Z,2.61
2022-12-25T14:39:31.053Z,2.59
2022-12-25T14:42:35.655Z,2.62
2022-12-25T14:45:38.910Z,2.36
2022-12-25T14:48:41.402Z,2.27
2022-12-25T14:51:44.316Z,2.45
2022-12-25T14:54:59.120Z,2.60
2022-12-25T14:58:06.452Z,2.48
2022-12-25T15:01:20.865Z,2.64
2022-12-25T15:04:23.985Z,2.64
2022-12-25T15:07:31.136Z,2.74
2022-12-25T15:13:56.744Z,2.43
2022-12-25T15:17:01.594Z,2.48
2022-12-25T15:20:04.353Z,2.46
2022-12-25T15:23:22.324Z,2.35
2022-12-25T15:26:26.227Z,2.56
2022-12-25T15:32:51.655Z,2.45
2022-12-25T15:35:54.322Z,2.52
2022-12-25T15:38:56.818Z,2.28
2022-12-25T15:42:12.145Z,2.43
2022-12-25T15:45:22.847Z,2.09
2022-12-25T15:48:25.228Z,2.33
2022-12-25T15:51:27.777Z,2.29
2022-12-25T15:54:31.416Z,2.56
2022-12-25T15:57:35.211Z,2.56
2022-12-25T16:00:37.487Z,2.58
2022-12-25T16:03:39.828Z,2.43
2022-12-25T16:06:42.377Z,2.39
2022-12-25T16:09:45.295Z,2.47
2022-12-25T16:12:47.894Z,2.58
2022-12-25T16:15:50.533Z,2.49
2022-12-25T16:18:52.882Z,2.59
2022-12-25T16:21:55.995Z,2.54
2022-12-25T16:24:58.458Z,2.59
2022-12-25T16:28:03.219Z,2.74
2022-12-25T16:31:05.679Z,2.79
2022-12-25T16:34:08.758Z,2.71
2022-12-25T16:37:11.344Z,2.75
2022-12-25T16:40:13.917Z,2.99
2022-12-25T16:43:21.964Z,3.03
2022-12-25T16:46:26.438Z,3.08
2022-12-25T16:49:28.876Z,3.22
2022-12-25T16:52:32.889Z,3.20
2022-12-25T16:55:36.899Z,3.22
2022-12-25T16:58:39.189Z,3.15
2022-12-25T17:01:45.274Z,3.21
2022-12-25T17:04:48.421Z,3.18
2022-12-25T17:07:51.649Z,3.24
2022-12-25T17:10:54.113Z,3.25
2022-12-25T17:13:58.791Z,3.08
2022-12-25T17:17:01.387Z,3.23
2022-12-25T17:20:04.899Z,3.31
2022-12-25T17:23:07.356Z,3.39
2022-12-25T17:26:09.894Z,3.50
2022-12-25T17:29:17.095Z,3.54
2022-12-25T17:32:22.631Z,3.46
2022-12-25T17:35:25.157Z,3.34
2022-12-25T17:38:29.856Z,3.45
2022-12-25T17:41:33.493Z,3.54
2022-12-25T17:44:36.330Z,3.43
2022-12-25T17:47:38.742Z,3.30
2022-12-25T17:50:41.782Z,3.12
2022-12-25T17:53:47.048Z,3.51
2022-12-25T17:56:49.642Z,3.49
2022-12-25T17:59:52.065Z,3.41
2022-12-25T18:02:54.672Z,3.47
2022-12-25T18:06:00.672Z,3.33
2022-12-25T18:09:06.344Z,3.49
2022-12-25T18:12:09.521Z,3.53
2022-12-25T18:15:13.703Z,3.55
2022-12-25T18:18:16.126Z,3.50
2022-12-25T18:21:19.009Z,3.62
2022-12-25T18:24:21.776Z,3.38
2022-12-25T18:27:24.695Z,3.45
2022-12-25T18:30:27.779Z,3.62
2022-12-25T18:33:30.104Z,3.61
2022-12-25T18:36:32.640Z,3.68
2022-12-25T18:39:35.157Z,3.66
2022-12-25T18:42:40.409Z,3.73
2022-12-25T18:45:43.337Z,3.52
2022-12-25T18:48:46.420Z,3.54
2022-12-25T18:51:49.645Z,3.58
2022-12-25T18:54:52.014Z,3.54
2022-12-25T18:57:54.905Z,3.66
2022-12-25T19:00:57.543Z,3.74
2022-12-25T19:04:04.988Z,3.82
2022-12-25T19:07:08.144Z,3.47
2022-12-25T19:10:10.807Z,3.67
2022-12-25T19:13:13.264Z,3.58
2022-12-25T19:16:15.924Z,3.52
2022-12-25T19:19:21.467Z,3.59
2022-12-25T19:22:24.080Z,3.53
2022-12-25T19:25:26.430Z,3.46
2022-12-25T19:28:31.432Z,3.31
2022-12-25T19:31:35.348Z,3.31
2022-12-25T19:34:37.954Z,3.57
2022-12-25T19:37:40.402Z,3.42
2022-12-25T19:41:00.568Z,3.39
2022-12-25T19:44:03.924Z,3.62
2022-12-25T19:47:06.401Z,3.63
2022-12-25T19:50:09.187Z,3.71
2022-12-25T19:53:11.530Z,3.68
2022-12-25T19:56:14.741Z,3.78
2022-12-25T19:59:17.100Z,3.95
2022-12-25T20:02:19.624Z,3.99
2022-12-25T20:05:22.075Z,3.95
2022-12-25T20:08:24.800Z,3.92
2022-12-25T20:11:29.177Z,3.87
2022-12-25T20:14:31.512Z,3.65
2022-12-25T20:17:33.891Z,3.68
2022-12-25T20:20:36.476Z,3.89
2022-12-25T20:23:39.091Z,3.84
2022-12-25T20:26:43.555Z,3.87
2022-12-25T20:29:49.057Z,3.84
2022-12-25T20:32:51.493Z,3.89
2022-12-25T20:35:55.248Z,4.05
2022-12-25T20:38:57.738Z,3.88
2022-12-25T20:42:00.343Z,3.70
2022-12-25T20:45:02.991Z,3.97
2022-12-25T20:48:05.510Z,3.87
2022-12-25T20:51:19.651Z,3.93
2022-12-25T20:54:21.971Z,3.60
2022-12-25T20:57:24.401Z,3.70
2022-12-25T21:00:26.792Z,3.98
2022-12-25T21:03:29.338Z,4.17
2022-12-25T21:06:31.874Z,4.01
2022-12-25T21:09:34.694Z,4.05
2022-12-25T21:12:37.241Z,3.95
2022-12-25T21:15:44.855Z,4.10
2022-12-25T21:18:47.772Z,3.88
2022-12-25T21:21:51.101Z,3.84
2022-12-25T21:24:54.461Z,3.85
2022-12-25T21:27:59.236Z,3.82
2022-12-25T21:31:03.876Z,3.92
2022-12-25T21:34:06.457Z,3.90
2022-12-25T21:37:08.904Z,3.98
2022-12-25T21:40:16.352Z,3.71
2022-12-25T21:43:19.045Z,3.73
2022-12-25T21:46:21.799Z,3.62
2022-12-25T21:49:42.939Z,3.62
2022-12-25T21:52:45.293Z,3.60
2022-12-25T21:55:58.658Z,3.51
2022-12-25T21:59:02.259Z,3.50
2022-12-25T22:02:11.711Z,3.38
2022-12-25T22:05:34.391Z,3.28
2022-12-25T22:08:37.000Z,3.45
2022-12-25T22:11:58.167Z,3.48
2022-12-25T22:15:06.807Z,3.54
2022-12-25T22:18:28.341Z,3.46
2022-12-25T22:21:30.774Z,3.43
2022-12-25T22:24:33.209Z,3.44
2022-12-25T22:27:38.247Z,3.42
2022-12-25T22:30:44.424Z,3.75
2022-12-25T22:33:46.935Z,3.55
2022-12-25T22:36:49.314Z,3.58
2022-12-25T22:39:51.597Z,3.47
2022-12-25T22:42:55.656Z,3.54
2022-12-25T22:46:01.755Z,3.43
2022-12-25T22:49:04.375Z,3.40
2022-12-25T22:52:10.879Z,3.37
2022-12-25T22:55:17.247Z,3.48
2022-12-25T22:58:19.740Z,3.53
2022-12-25T23:01:22.255Z,3.47
2022-12-25T23:04:24.697Z,3.54
2022-12-25T23:07:27.068Z,3.41
2022-12-25T23:10:29.639Z,3.48
2022-12-25T23:13:51.163Z,3.48
2022-12-25T23:16:53.533Z,3.50
2022-12-25T23:20:15.873Z,3.56
2022-12-25T23:23:37.172Z,3.62
2022-12-25T23:26:39.507Z,3.56
2022-12-25T23:29:42.127Z,3.53
2022-12-25T23:32:44.700Z,3.53
2022-12-25T23:35:47.110Z,3.66
2022-12-25T23:38:49.533Z,3.42
2022-12-25T23:41:51.997Z,3.52
2022-12-25T23:44:54.598Z,3.32
2022-12-25T23:47:56.954Z,3.44
2022-12-25T23:51:05.957Z,3.37
2022-12-25T23:54:08.492Z,3.53
2022-12-25T23:57:10.885Z,3.26
